Time;durP1;ratioP1;P1;durP2;ratioP2;P2;SDS_P1;SDS_P2;PMS_P1;PMS_P2;Temp;Humidity;BMP_temperature;BMP_pressure;BME280_temperature;BME280_humidity;BME280_pressure;Samples;Min_cycle;Max_cycle;Signal;HPM_P1;HPM_P2
2023/04/03 00:01:07;;;;;;;2.30;2.20;;;;;;;6.59;100.00;95900.25;4939699;29;20020;-72
2023/04/03 00:03:33;;;;;;;1.77;1.77;;;;;;;6.58;100.00;95893.34;4936169;29;20024;-72
2023/04/03 00:05:59;;;;;;;2.08;1.98;;;;;;;6.58;100.00;95902.06;4936525;29;20035;-72
2023/04/03 00:08:24;;;;;;;1.80;1.80;;;;;;;6.56;100.00;95905.72;4936219;29;20256;-73
2023/04/03 00:10:50;;;;;;;1.98;1.92;;;;;;;6.59;100.00;95905.50;4920135;29;20028;-72
2023/04/03 00:13:16;;;;;;;2.70;2.60;;;;;;;6.65;100.00;95901.59;4933948;29;20031;-72
2023/04/03 00:15:42;;;;;;;2.30;2.20;;;;;;;6.58;100.00;95907.28;4938116;29;20067;-73
2023/04/03 00:18:08;;;;;;;3.30;3.10;;;;;;;6.55;100.00;95904.91;4938740;29;20024;-72
2023/04/03 00:20:34;;;;;;;2.90;2.72;;;;;;;6.56;100.00;95910.94;4921939;29;20039;-72
2023/04/03 00:23:00;;;;;;;3.38;3.17;;;;;;;6.53;100.00;95904.19;4938077;29;20028;-72
2023/04/03 00:25:26;;;;;;;3.30;3.00;;;;;;;6.56;100.00;95905.72;4938139;29;20576;-73
2023/04/03 00:27:51;;;;;;;2.20;2.10;;;;;;;6.64;100.00;95894.69;4937957;29;20118;-73
2023/04/03 00:30:19;;;;;;;2.55;2.38;;;;;;;6.62;100.00;95896.59;4939021;29;20032;-72
2023/04/03 00:32:45;;;;;;;2.30;2.20;;;;;;;6.72;100.00;95892.34;4936821;29;20027;-72
2023/04/03 00:35:10;;;;;;;2.38;2.28;;;;;;;6.48;100.00;95887.97;4928540;29;20031;-73
2023/04/03 00:37:36;;;;;;;2.40;2.30;;;;;;;6.51;100.00;95886.91;4938252;29;20031;-72
2023/04/03 00:40:03;;;;;;;2.50;2.30;;;;;;;6.33;100.00;95889.09;4936835;29;20059;-72
2023/04/03 00:42:28;;;;;;;2.20;2.10;;;;;;;6.51;100.00;95877.28;4918449;29;20032;-73
2023/04/03 00:44:57;;;;;;;3.13;2.45;;;;;;;6.37;100.00;95880.91;4938084;29;20041;-72
2023/04/03 00:47:24;;;;;;;2.70;2.60;;;;;;;6.30;100.00;95875.31;4938015;29;20453;-72
2023/04/03 00:49:51;;;;;;;2.42;2.33;;;;;;;6.30;100.00;95875.31;4936043;29;20534;-72
2023/04/03 00:52:21;;;;;;;2.40;2.30;;;;;;;6.22;100.00;95877.63;4930493;29;20386;-71
2023/04/03 00:54:51;;;;;;;2.30;2.10;;;;;;;6.21;100.00;95875.13;4937137;29;20099;-72
2023/04/03 00:57:17;;;;;;;2.20;2.00;;;;;;;6.20;100.00;95874.28;4936067;29;20055;-72
2023/04/03 00:59:46;;;;;;;1.90;1.90;;;;;;;6.21;100.00;95860.25;4939037;29;20051;-72
2023/04/03 01:02:12;;;;;;;2.20;2.08;;;;;;;6.20;100.00;95869.06;4934700;29;20038;-72
2023/04/03 01:04:40;;;;;;;2.20;2.10;;;;;;;6.13;100.00;95862.59;4937510;29;20035;-72
2023/04/03 01:07:08;;;;;;;2.10;2.00;;;;;;;6.20;100.00;95866.44;4937712;29;20039;-72
2023/04/03 01:09:34;;;;;;;1.90;1.80;;;;;;;6.17;100.00;95864.06;4931482;29;20667;-71
2023/04/03 01:12:30;;;;;;;1.92;1.85;;;;;;;6.11;100.00;95861.88;4935463;29;20050;-72
2023/04/03 01:15:03;;;;;;;2.35;2.08;;;;;;;6.10;100.00;95863.66;4919680;29;20127;-72
2023/04/03 01:17:28;;;;;;;2.10;2.00;;;;;;;6.13;100.00;95857.38;4935319;29;20375;-72
2023/04/03 01:20:21;;;;;;;1.88;1.80;;;;;;;6.13;100.00;95857.38;4936925;29;20059;-71
2023/04/03 01:22:47;;;;;;;1.95;1.85;;;;;;;6.10;100.00;95862.81;4909831;29;20074;-72
2023/04/03 01:25:12;;;;;;;2.55;2.35;;;;;;;6.12;100.00;95859.16;4937142;29;20055;-72
2023/04/03 01:27:38;;;;;;;3.05;2.85;;;;;;;6.05;100.00;95865.75;4914442;29;20059;-72
2023/04/03 01:30:04;;;;;;;2.88;2.70;;;;;;;6.06;100.00;95861.34;4937557;29;20024;-72
2023/04/03 01:32:29;;;;;;;2.55;2.45;;;;;;;6.05;100.00;95860.53;4935936;29;20023;-72
2023/04/03 01:34:55;;;;;;;2.20;2.10;;;;;;;6.00;100.00;95863.44;4937260;29;20039;-72
2023/04/03 01:37:20;;;;;;;2.10;2.00;;;;;;;6.00;100.00;95854.78;4937077;29;20124;-72
2023/04/03 01:39:45;;;;;;;3.00;2.33;;;;;;;6.02;100.00;95856.34;4931288;29;20345;-71
2023/04/03 01:42:12;;;;;;;2.80;2.60;;;;;;;6.00;100.00;95854.78;4932738;29;20023;-72
2023/04/03 01:44:37;;;;;;;3.33;3.22;;;;;;;5.97;100.00;95850.59;4934491;29;20283;-72
2023/04/03 01:47:06;;;;;;;3.13;2.92;;;;;;;5.95;100.00;95843.78;4935147;29;20157;-72
2023/04/03 01:49:32;;;;;;;3.20;2.85;;;;;;;5.94;100.00;95842.97;4933286;29;20050;-72
2023/04/03 01:51:57;;;;;;;6.05;2.72;;;;;;;5.94;100.00;95844.75;4933653;29;20020;-72
2023/04/03 01:54:22;;;;;;;2.97;2.83;;;;;;;5.96;100.00;95846.31;4936361;29;20083;-72
2023/04/03 01:56:48;;;;;;;3.95;3.65;;;;;;;6.02;100.00;95842.47;4935237;29;20421;-72
2023/04/03 01:59:14;;;;;;;4.38;4.05;;;;;;;6.00;100.00;95847.75;4903973;29;20022;-72
2023/04/03 02:01:39;;;;;;;4.10;3.80;;;;;;;6.07;100.00;95848.19;4936590;29;20157;-72
2023/04/03 02:04:05;;;;;;;4.85;4.30;;;;;;;5.96;100.00;95840.22;4915541;29;20043;-72
2023/04/03 02:06:30;;;;;;;4.50;4.20;;;;;;;5.93;100.00;95841.31;4935107;29;20498;-72
2023/04/03 02:08:56;;;;;;;4.82;4.43;;;;;;;5.93;100.00;95840.47;4933738;29;20035;-71
2023/04/03 02:11:21;;;;;;;5.15;4.75;;;;;;;5.96;100.00;95838.47;4934860;29;20044;-72
2023/04/03 02:13:47;;;;;;;4.45;4.00;;;;;;;5.91;100.00;95840.59;4934979;29;20070;-72
2023/04/03 02:16:13;;;;;;;4.32;4.10;;;;;;;5.97;100.00;95841.94;4917586;29;20030;-72
2023/04/03 02:18:39;;;;;;;3.97;3.55;;;;;;;6.00;100.00;95845.13;4933547;29;20024;-72
2023/04/03 02:21:05;;;;;;;4.05;3.80;;;;;;;5.98;100.00;95844.41;4934652;29;20094;-72
2023/04/03 02:23:31;;;;;;;4.38;4.00;;;;;;;6.02;100.00;95845.91;4913623;29;20836;-72
2023/04/03 02:26:11;;;;;;;4.22;3.70;;;;;;;5.95;100.00;95842.03;4935895;29;20035;-73
2023/04/03 02:28:37;;;;;;;4.20;3.90;;;;;;;5.94;100.00;95842.97;4935189;29;20034;-72
2023/04/03 02:31:04;;;;;;;4.47;4.07;;;;;;;5.93;100.00;95837.84;4935745;29;20036;-72
2023/04/03 02:33:30;;;;;;;3.95;3.60;;;;;;;5.88;100.00;95839.00;4934098;29;20035;-72
2023/04/03 02:35:56;;;;;;;4.28;3.97;;;;;;;5.89;100.00;95832.03;4934691;29;20091;-72
2023/04/03 02:38:23;;;;;;;5.25;3.90;;;;;;;5.98;100.00;95833.97;4935436;29;20094;-72
2023/04/03 02:40:48;;;;;;;3.13;2.92;;;;;;;5.95;100.00;95834.19;4912921;29;20023;-72
2023/04/03 02:43:14;;;;;;;3.97;3.67;;;;;;;5.97;100.00;95836.72;4918096;29;20585;-72
2023/04/03 02:45:39;;;;;;;3.67;3.47;;;;;;;5.98;100.00;95828.75;4933594;29;20024;-71
2023/04/03 02:48:05;;;;;;;3.95;3.65;;;;;;;5.97;100.00;95831.47;4936306;29;20257;-72
2023/04/03 02:50:30;;;;;;;3.80;3.60;;;;;;;5.99;100.00;95825.19;4935739;29;20031;-72
2023/04/03 02:52:56;;;;;;;4.20;3.90;;;;;;;5.98;100.00;95817.47;4927751;29;20079;-72
2023/04/03 02:55:21;;;;;;;3.72;3.47;;;;;;;5.92;100.00;95821.34;4936755;29;20028;-71
2023/04/03 02:57:47;;;;;;;4.43;4.13;;;;;;;5.90;100.00;95823.25;4918025;29;20043;-72
2023/04/03 03:00:14;;;;;;;4.40;4.10;;;;;;;5.87;100.00;95816.44;4936105;29;20448;-72
2023/04/03 03:02:40;;;;;;;5.00;4.70;;;;;;;5.85;100.00;95817.47;4935996;29;20572;-72
2023/04/03 03:05:07;;;;;;;4.70;4.40;;;;;;;5.85;100.00;95818.34;4934567;29;20535;-72
2023/04/03 03:07:32;;;;;;;4.85;4.45;;;;;;;5.84;100.00;95810.59;4935296;29;20061;-72
2023/04/03 03:09:58;;;;;;;4.70;4.40;;;;;;;5.86;100.00;95813.97;4936529;29;20063;-72
2023/04/03 03:12:24;;;;;;;4.57;4.28;;;;;;;5.85;100.00;95826.16;4920662;29;20433;-72
2023/04/03 03:14:50;;;;;;;4.40;4.10;;;;;;;5.87;100.00;95816.44;4935994;29;20034;-72
2023/04/03 03:17:16;;;;;;;4.03;3.80;;;;;;;5.85;100.00;95818.34;4936186;29;20024;-72
2023/04/03 03:19:42;;;;;;;5.03;4.70;;;;;;;5.86;100.00;95814.78;4934390;29;20027;-74
2023/04/03 03:22:07;;;;;;;4.50;4.20;;;;;;;5.88;100.00;95815.50;4933936;29;20036;-73
2023/04/03 03:24:32;;;;;;;4.78;4.20;;;;;;;5.88;100.00;95817.28;4930296;29;20127;-71
2023/04/03 03:26:58;;;;;;;4.45;4.25;;;;;;;5.93;100.00;95820.41;4935642;29;20053;-72
2023/04/03 03:29:23;;;;;;;4.82;4.43;;;;;;;5.85;100.00;95820.09;4932163;29;20123;-71
2023/04/03 03:31:49;;;;;;;4.57;4.22;;;;;;;5.83;100.00;95806.31;4910039;29;20446;-72
2023/04/03 03:34:14;;;;;;;5.22;4.93;;;;;;;5.83;100.00;95820.22;4935997;29;20031;-71
2023/04/03 03:36:41;;;;;;;5.22;4.82;;;;;;;5.84;100.00;95816.66;4940574;29;20031;-72
2023/04/03 03:39:06;;;;;;;4.65;4.25;;;;;;;5.86;100.00;95806.94;4939686;29;20043;-71
2023/04/03 03:41:32;;;;;;;4.32;4.13;;;;;;;5.83;100.00;95819.38;4942112;29;20028;-72
2023/04/03 03:43:57;;;;;;;4.30;3.97;;;;;;;5.84;100.00;95810.59;4939513;29;20024;-71
2023/04/03 03:46:23;;;;;;;4.93;3.60;;;;;;;5.88;100.00;95817.28;4939711;29;20099;-74
2023/04/03 03:48:49;;;;;;;4.50;4.20;;;;;;;5.96;100.00;95814.09;4920313;29;20035;-71
2023/04/03 03:51:15;;;;;;;4.22;3.97;;;;;;;5.95;100.00;95815.91;4938542;29;20031;-71
2023/04/03 03:53:40;;;;;;;4.68;4.35;;;;;;;5.93;100.00;95819.56;4937958;29;20024;-73
2023/04/03 03:56:06;;;;;;;4.93;4.53;;;;;;;5.85;100.00;95812.25;4930058;29;20037;-72
2023/04/03 03:58:32;;;;;;;4.25;4.05;;;;;;;5.81;100.00;95818.66;4938226;29;20143;-74
2023/04/03 04:01:06;;;;;;;4.78;4.35;;;;;;;5.78;100.00;95816.25;4940389;29;20063;-74
2023/04/03 04:03:32;;;;;;;4.65;4.25;;;;;;;5.85;100.00;95820.09;4934835;29;20428;-75
2023/04/03 04:05:58;;;;;;;4.95;4.65;;;;;;;5.82;100.00;95810.72;4936662;29;20043;-74
2023/04/03 04:08:23;;;;;;;5.18;4.78;;;;;;;5.86;100.00;95816.56;4935566;29;20023;-74
2023/04/03 04:10:49;;;;;;;5.20;4.90;;;;;;;5.82;100.00;95822.94;4938838;29;20039;-74
2023/04/03 04:13:14;;;;;;;4.70;4.40;;;;;;;5.80;100.00;95817.84;4937662;29;20024;-73
2023/04/03 04:15:40;;;;;;;4.05;3.85;;;;;;;5.91;100.00;95816.22;4937134;29;20087;-71
2023/04/03 04:18:05;;;;;;;4.20;3.90;;;;;;;5.83;100.00;95820.22;4938589;29;20022;-73
2023/04/03 04:20:31;;;;;;;4.40;4.10;;;;;;;5.85;100.00;95810.50;4933368;29;20031;-74
2023/04/03 04:22:56;;;;;;;4.63;4.22;;;;;;;5.79;100.00;95816.16;4939024;29;20094;-74
2023/04/03 04:25:21;;;;;;;4.65;4.28;;;;;;;5.96;100.00;95817.56;4937526;29;20038;-74
2023/04/03 04:27:47;;;;;;;4.63;4.32;;;;;;;5.91;100.00;95821.44;4938851;29;20023;-74
2023/04/03 04:30:13;;;;;;;4.25;3.95;;;;;;;5.82;100.00;95820.31;4917229;29;20516;-74
2023/04/03 04:32:38;;;;;;;4.22;3.90;;;;;;;5.79;100.00;95812.72;4937242;29;20023;-74
2023/04/03 04:35:04;;;;;;;4.88;4.57;;;;;;;5.76;100.00;95803.31;4937600;29;20023;-74
2023/04/03 04:37:30;;;;;;;5.35;4.95;;;;;;;5.77;100.00;95802.38;4942218;29;20035;-74
2023/04/03 04:39:55;;;;;;;4.88;4.55;;;;;;;5.81;100.00;95801.22;4939006;29;20067;-73
2023/04/03 04:42:21;;;;;;;4.75;4.47;;;;;;;5.76;100.00;95794.63;4938158;29;20040;-74
2023/04/03 04:44:46;;;;;;;4.90;4.60;;;;;;;5.71;100.00;95803.66;4938077;29;20087;-74
2023/04/03 04:47:12;;;;;;;4.53;4.30;;;;;;;5.83;100.00;95798.47;4932565;29;20107;-74
2023/04/03 04:49:37;;;;;;;5.10;4.80;;;;;;;5.92;100.00;95797.81;4936805;29;20067;-73
2023/04/03 04:52:03;;;;;;;4.28;4.07;;;;;;;5.80;100.00;95798.69;4935497;29;20030;-73
2023/04/03 04:54:28;;;;;;;5.00;4.50;;;;;;;5.71;100.00;95789.72;4930027;29;20032;-74
2023/04/03 04:56:53;;;;;;;5.00;4.40;;;;;;;5.70;100.00;95793.28;4937738;29;20075;-74
2023/04/03 04:59:19;;;;;;;5.07;3.20;;;;;;;5.70;100.00;95795.91;4937887;29;20047;-74
2023/04/03 05:01:44;;;;;;;3.90;3.70;;;;;;;5.84;100.00;95798.38;4937277;29;20456;-74
2023/04/03 05:04:10;;;;;;;3.70;3.40;;;;;;;5.89;100.00;95800.66;4932887;29;20127;-74
2023/04/03 05:06:35;;;;;;;4.05;3.85;;;;;;;5.79;100.00;95797.03;4936193;29;20028;-74
2023/04/03 05:09:01;;;;;;;4.47;4.18;;;;;;;5.86;100.00;95798.28;4937736;29;20118;-74
2023/04/03 05:11:26;;;;;;;5.40;5.00;;;;;;;5.87;100.00;95790.31;4935398;29;20031;-74
2023/04/03 05:13:52;;;;;;;4.82;4.53;;;;;;;5.87;100.00;95799.94;4933956;29;20224;-73
2023/04/03 05:16:18;;;;;;;5.93;5.32;;;;;;;5.78;100.00;95795.38;4932074;29;20032;-73
2023/04/03 05:18:43;;;;;;;5.82;5.32;;;;;;;5.74;100.00;95800.81;4931365;29;20028;-73
2023/04/03 05:21:08;;;;;;;7.15;6.60;;;;;;;5.84;100.00;95800.13;4904927;29;20036;-73
2023/04/03 05:23:34;;;;;;;7.38;6.88;;;;;;;5.81;100.00;95796.00;4920986;29;20099;-73
2023/04/03 05:26:00;;;;;;;8.00;7.40;;;;;;;5.84;100.00;95797.53;4939150;29;20035;-73
2023/04/03 05:28:25;;;;;;;7.72;7.07;;;;;;;5.74;100.00;95799.97;4937423;29;20035;-73
2023/04/03 05:30:55;;;;;;;7.75;7.15;;;;;;;5.73;100.00;95804.38;4937873;29;20040;-73
2023/04/03 05:33:22;;;;;;;8.18;7.32;;;;;;;5.72;100.00;95801.84;4931757;29;20035;-74
2023/04/03 05:35:47;;;;;;;9.82;9.02;;;;;;;5.66;100.00;95808.38;4927697;29;20404;-73
2023/04/03 05:38:12;;;;;;;10.75;9.85;;;;;;;5.73;100.00;95804.38;4936437;29;20142;-74
2023/04/03 05:40:38;;;;;;;12.07;10.98;;;;;;;5.71;100.00;95808.03;4911443;29;20053;-73
2023/04/03 05:43:04;;;;;;;8.98;8.38;;;;;;;5.72;100.00;95802.69;4932474;29;20059;-73
2023/04/03 05:45:30;;;;;;;6.75;6.28;;;;;;;5.73;100.00;95806.97;4933067;29;20047;-76
2023/04/03 05:47:55;;;;;;;7.30;6.70;;;;;;;5.76;100.00;95808.56;4932748;29;20304;-74
2023/04/03 05:50:21;;;;;;;5.47;4.97;;;;;;;5.72;100.00;95807.94;4918385;29;20131;-73
2023/04/03 05:52:48;;;;;;;4.82;4.32;;;;;;;5.65;100.00;95811.94;4932372;29;20034;-71
2023/04/03 05:55:14;;;;;;;6.65;4.75;;;;;;;5.62;100.00;95809.50;4935163;29;20618;-78
2023/04/03 05:57:40;;;;;;;5.90;5.47;;;;;;;5.63;100.00;95803.34;4935974;29;20051;-74
2023/04/03 06:00:08;;;;;;;8.77;8.07;;;;;;;5.70;100.00;95804.59;4934212;29;20079;-80
2023/04/03 06:02:35;;;;;;;10.13;9.43;;;;;;;5.78;100.00;95804.06;4937085;29;20040;-76
2023/04/03 06:05:01;;;;;;;10.13;9.25;;;;;;;5.83;100.00;95804.53;4934600;29;20381;-76
2023/04/03 06:07:28;;;;;;;10.18;9.38;;;;;;;5.91;100.00;95814.47;4940397;29;20082;-78
2023/04/03 06:09:55;;;;;;;11.32;10.52;;;;;;;5.83;100.00;95808.94;4930456;29;20048;-77
2023/04/03 06:12:21;;;;;;;12.45;11.45;;;;;;;5.84;100.00;95806.22;4919239;29;20170;-75
2023/04/03 06:14:48;;;;;;;13.15;12.05;;;;;;;5.93;100.00;95815.19;4935162;29;20111;-75
2023/04/03 06:17:17;;;;;;;10.88;9.98;;;;;;;5.92;100.00;95810.91;4933375;29;20067;-76
2023/04/03 06:19:43;;;;;;;11.05;10.15;;;;;;;6.00;100.00;95808.56;4939832;29;20176;-73
2023/04/03 06:22:08;;;;;;;10.27;9.27;;;;;;;6.12;100.00;95813.88;4936720;29;20035;-74
2023/04/03 06:24:35;;;;;;;9.57;8.75;;;;;;;6.20;100.00;95814.16;4935887;29;20035;-77
2023/04/03 06:27:00;;;;;;;8.73;8.02;;;;;;;6.15;100.00;95804.03;4933937;29;20514;-74
2023/04/03 06:29:26;;;;;;;9.45;8.10;;;;;;;6.18;100.00;95808.19;4934841;29;20439;-74
2023/04/03 06:31:51;;;;;;;8.07;7.47;;;;;;;6.27;100.00;95806.69;4936071;29;20028;-74
2023/04/03 06:34:17;;;;;;;8.88;8.25;;;;;;;6.24;100.00;95807.75;4934949;29;20136;-74
2023/04/03 06:36:44;;;;;;;8.18;7.32;;;;;;;6.35;100.00;95803.53;4935837;29;20023;-75
2023/04/03 06:39:15;;;;;;;8.20;7.60;;;;;;;6.45;100.00;95807.13;4933298;29;20039;-74
2023/04/03 06:41:41;;;;;;;7.95;7.22;;;;;;;6.47;100.00;95807.00;4931008;29;20053;-73
2023/04/03 06:44:10;;;;;;;8.07;7.55;;;;;;;6.55;100.00;95809.88;4935661;29;20031;-74
2023/04/03 06:46:37;;;;;;;8.20;7.60;;;;;;;6.55;100.00;95808.13;4935228;29;20268;-74
2023/04/03 06:49:03;;;;;;;7.68;7.03;;;;;;;6.65;100.00;95816.13;4933991;29;20032;-74
2023/04/03 06:51:30;;;;;;;7.93;7.18;;;;;;;6.82;100.00;95814.00;4931526;29;20461;-73
2023/04/03 06:53:58;;;;;;;8.25;7.13;;;;;;;6.73;100.00;95808.50;4936466;29;20175;-73
2023/04/03 06:56:25;;;;;;;10.93;6.93;;;;;;;6.87;100.00;95814.50;4934408;29;20079;-74
2023/04/03 06:58:51;;;;;;;7.30;6.60;;;;;;;6.97;100.00;95807.59;4933864;29;20035;-74
2023/04/03 07:01:18;;;;;;;7.15;6.50;;;;;;;7.15;100.00;95807.16;4936594;29;20027;-74
2023/04/03 07:03:44;;;;;;;6.88;6.20;;;;;;;7.19;100.00;95808.56;4936443;29;20042;-74
2023/04/03 07:06:12;;;;;;;6.50;6.00;;;;;;;7.22;100.00;95804.91;4933681;29;20031;-74
2023/04/03 07:08:39;;;;;;;5.60;5.10;;;;;;;7.34;100.00;95806.56;4933778;29;20474;-73
2023/04/03 07:11:05;;;;;;;7.25;5.63;;;;;;;7.36;100.00;95814.31;4912148;29;20037;-74
2023/04/03 07:13:31;;;;;;;6.95;6.18;;;;;;;7.52;100.00;95808.69;4932073;29;20035;-74
2023/04/03 07:15:57;;;;;;;6.03;5.53;;;;;;;7.59;100.00;95815.13;4935462;29;20492;-74
2023/04/03 07:18:23;;;;;;;5.80;5.40;;;;;;;7.62;100.00;95809.63;4932717;29;20598;-74
2023/04/03 07:20:48;;;;;;;5.72;5.32;;;;;;;7.78;100.00;95811.06;4934569;29;20035;-74
2023/04/03 07:23:14;;;;;;;5.32;4.95;;;;;;;7.92;100.00;95808.19;4918010;29;20070;-74
2023/04/03 07:25:43;;;;;;;5.40;5.00;;;;;;;7.96;100.00;95812.22;4933931;29;20031;-74
2023/04/03 07:28:09;;;;;;;6.15;5.65;;;;;;;8.05;100.00;95809.78;4935357;29;20035;-75
2023/04/03 07:30:35;;;;;;;5.47;4.97;;;;;;;8.12;100.00;95816.22;4935745;29;20032;-74
2023/04/03 07:33:01;;;;;;;5.72;5.20;;;;;;;8.06;100.00;95821.94;4933251;29;20036;-74
2023/04/03 07:35:26;;;;;;;8.30;7.50;;;;;;;8.13;100.00;95826.59;4930662;29;20515;-74
2023/04/03 07:37:53;;;;;;;8.40;7.60;;;;;;;7.92;100.00;95825.69;4928667;29;20035;-72
2023/04/03 07:40:18;;;;;;;6.55;6.05;;;;;;;7.82;100.00;95821.19;4934217;29;20042;-74
2023/04/03 07:42:44;;;;;;;6.28;5.75;;;;;;;7.67;100.00;95828.47;4932277;29;20053;-73
2023/04/03 07:45:10;;;;;;;7.50;6.50;;;;;;;7.60;100.00;95824.63;4934471;29;20032;-73
2023/04/03 07:47:35;;;;;;;6.13;5.72;;;;;;;7.59;100.00;95821.22;4933607;29;20039;-74
2023/04/03 07:50:01;;;;;;;6.20;5.70;;;;;;;7.76;100.00;95820.81;4935373;29;20501;-72
2023/04/03 07:52:26;;;;;;;6.55;6.05;;;;;;;7.59;100.00;95822.97;4930963;29;20500;-74
2023/04/03 07:54:52;;;;;;;6.82;6.30;;;;;;;7.86;100.00;95824.41;4934285;29;20500;-73
2023/04/03 07:57:17;;;;;;;7.40;6.70;;;;;;;7.66;100.00;95824.19;4916661;29;20433;-74
2023/04/03 07:59:43;;;;;;;8.50;5.95;;;;;;;7.80;100.00;95822.25;4932303;29;20371;-73
2023/04/03 08:02:09;;;;;;;35.42;27.45;;;;;;;7.71;100.00;95822.03;4934851;29;20019;-73
2023/04/03 08:04:35;;;;;;;6.10;5.43;;;;;;;7.84;100.00;95818.41;4934265;29;20051;-73
2023/04/03 08:07:00;;;;;;;6.70;6.05;;;;;;;7.63;100.00;95821.81;4930839;29;20040;-73
2023/04/03 08:09:26;;;;;;;15.57;10.10;;;;;;;7.55;100.00;95822.41;4934664;29;20074;-73
2023/04/03 08:11:53;;;;;;;6.78;6.18;;;;;;;7.59;100.00;95825.59;4932907;29;20032;-73
2023/04/03 08:14:20;;;;;;;5.70;5.20;;;;;;;7.70;100.00;95822.97;4932116;29;20040;-73
2023/04/03 08:16:47;;;;;;;10.10;5.80;;;;;;;7.85;100.00;95820.13;4935044;29;20105;-74
2023/04/03 08:19:13;;;;;;;6.45;5.85;;;;;;;7.92;100.00;95823.91;4930911;29;20437;-74
2023/04/03 08:21:41;;;;;;;5.55;5.05;;;;;;;8.13;99.07;95820.53;4934809;29;20031;-73
2023/04/03 08:24:07;;;;;;;5.40;5.00;;;;;;;8.07;97.43;95824.47;4937343;29;20036;-73
2023/04/03 08:26:32;;;;;;;6.50;5.90;;;;;;;8.26;98.02;95834.28;4920526;29;20134;-73
2023/04/03 08:28:57;;;;;;;5.07;4.70;;;;;;;8.32;96.17;95828.56;4934630;29;20035;-72
2023/04/03 08:31:23;;;;;;;4.95;4.55;;;;;;;8.38;96.59;95829.03;4936491;29;20189;-73
2023/04/03 08:33:49;;;;;;;7.07;6.47;;;;;;;8.32;97.05;95827.72;4936025;29;20031;-73
2023/04/03 08:36:25;;;;;;;5.80;4.15;;;;;;;8.65;94.72;95838.25;4938834;29;20039;-72
2023/04/03 08:38:52;;;;;;;6.72;5.75;;;;;;;8.55;94.42;95828.50;4935045;29;20036;-73
2023/04/03 08:41:35;;;;;;;5.95;4.75;;;;;;;8.76;93.24;95827.69;4935440;29;20046;-72
2023/04/03 08:44:09;;;;;;;4.95;4.45;;;;;;;9.03;92.98;95835.03;4938846;29;20103;-74
2023/04/03 08:47:03;;;;;;;4.75;4.35;;;;;;;9.20;92.27;95834.59;4937619;29;20106;-74
2023/04/03 08:49:46;;;;;;;4.00;3.70;;;;;;;9.25;90.14;95835.03;4932547;29;20690;-73
2023/04/03 08:52:15;;;;;;;4.57;4.10;;;;;;;9.41;89.87;95826.69;4935159;29;20481;-73
2023/04/03 08:54:56;;;;;;;5.28;4.30;;;;;;;9.27;88.79;95827.88;4936202;29;20035;-73
2023/04/03 08:57:48;;;;;;;4.28;3.97;;;;;;;9.42;89.20;95821.31;4933189;29;20048;-73
2023/04/03 09:00:14;;;;;;;4.18;3.20;;;;;;;9.61;86.12;95819.69;4938081;29;20040;-73
2023/04/03 09:02:46;;;;;;;3.75;3.55;;;;;;;9.69;85.72;95821.66;4933459;29;20095;-74
2023/04/03 09:05:20;;;;;;;3.92;3.55;;;;;;;9.81;85.16;95815.34;4932275;29;20039;-75
2023/04/03 09:07:55;;;;;;;2.80;2.65;;;;;;;10.00;82.60;95825.06;4931124;29;20069;-74
2023/04/03 09:10:27;;;;;;;5.25;4.85;;;;;;;10.00;81.76;95817.19;4905947;29;20028;-75
2023/04/03 09:13:30;;;;;;;9.63;8.65;;;;;;;9.99;77.22;95822.59;4935590;29;20043;-76
2023/04/03 09:15:57;;;;;;;4.47;4.13;;;;;;;9.97;78.26;95814.84;4933680;29;20559;-76
2023/04/03 09:18:39;;;;;;;3.88;3.50;;;;;;;10.22;77.43;95814.47;4931417;29;20016;-76
2023/04/03 09:21:13;;;;;;;3.95;3.65;;;;;;;10.29;78.65;95808.53;4937789;29;20035;-75
2023/04/03 09:24:11;;;;;;;4.28;3.97;;;;;;;10.21;76.38;95808.34;4937787;29;20357;-77
2023/04/03 09:27:10;;;;;;;4.50;4.03;;;;;;;10.32;74.34;95799.50;4918785;29;20075;-76
2023/04/03 09:29:42;;;;;;;3.50;3.20;;;;;;;10.31;76.69;95800.47;4901432;29;20043;-76
2023/04/03 09:32:32;;;;;;;3.25;3.05;;;;;;;10.42;78.04;95794.28;4935396;29;20087;-76
2023/04/03 09:35:03;;;;;;;2.78;2.60;;;;;;;10.33;77.15;95793.28;4930105;29;20062;-75
2023/04/03 09:37:42;;;;;;;3.00;2.80;;;;;;;10.52;77.01;95796.91;4927796;29;20031;-75
2023/04/03 09:40:26;;;;;;;2.80;2.60;;;;;;;10.71;74.46;95799.53;4936798;29;20496;-75
2023/04/03 09:42:54;;;;;;;2.40;2.30;;;;;;;10.45;75.98;95786.09;4931350;29;20091;-75
2023/04/03 09:45:33;;;;;;;2.60;2.50;;;;;;;10.45;76.31;95796.63;4932926;29;20048;-74
2023/04/03 09:48:14;;;;;;;2.60;2.40;;;;;;;10.42;74.59;95794.28;4931525;29;20023;-75
2023/04/03 09:51:01;;;;;;;2.95;2.75;;;;;;;11.16;73.37;95787.53;4930616;29;20473;-74
2023/04/03 09:53:37;;;;;;;2.58;2.47;;;;;;;11.14;72.63;95791.28;4936347;29;20041;-75
2023/04/03 09:56:17;;;;;;;2.30;2.17;;;;;;;11.45;72.79;95796.31;4935503;29;20035;-75
2023/04/03 09:58:45;;;;;;;2.35;2.20;;;;;;;11.25;70.89;95796.38;4930052;29;20023;-74
2023/04/03 10:01:24;;;;;;;2.50;2.30;;;;;;;11.10;70.14;95797.81;4935359;29;20031;-76
2023/04/03 10:04:08;;;;;;;2.42;2.28;;;;;;;10.44;76.19;95797.59;4934907;29;20024;-75
2023/04/03 10:06:37;;;;;;;4.38;2.70;;;;;;;10.06;76.57;95801.81;4931634;29;20035;-75
2023/04/03 10:09:06;;;;;;;2.90;2.70;;;;;;;9.80;77.49;95794.44;4937551;29;20271;-72
2023/04/03 10:11:32;;;;;;;2.40;2.30;;;;;;;9.86;76.76;95799.19;4934020;29;20020;-73
2023/04/03 10:14:00;;;;;;;4.00;2.83;;;;;;;9.48;77.38;95798.09;4935044;29;20087;-73
2023/04/03 10:16:44;;;;;;;2.50;2.30;;;;;;;9.62;77.17;95787.22;4936195;29;20062;-72
2023/04/03 10:19:37;;;;;;;2.42;2.33;;;;;;;9.50;78.12;95791.72;4936359;29;20515;-73
2023/04/03 10:22:20;;;;;;;2.67;2.58;;;;;;;9.13;80.87;95787.81;4934415;29;20042;-73
2023/04/03 10:25:14;;;;;;;5.50;4.20;;;;;;;9.21;80.60;95778.47;4918867;29;20036;-73
2023/04/03 10:27:55;;;;;;;2.67;2.47;;;;;;;9.34;80.52;95781.69;4932700;29;20074;-73
2023/04/03 10:30:51;;;;;;;2.47;2.13;;;;;;;9.70;77.78;95776.84;4931849;29;20039;-72
2023/04/03 10:33:31;;;;;;;2.70;2.50;;;;;;;9.62;79.37;95775.84;4930716;29;20473;-75
2023/04/03 10:36:24;;;;;;;3.45;2.58;;;;;;;9.65;78.67;95763.28;4934143;29;20593;-73
2023/04/03 10:39:15;;;;;;;2.88;2.58;;;;;;;9.82;79.45;95768.84;4932918;29;20032;-73
2023/04/03 10:42:11;;;;;;;4.20;3.00;;;;;;;9.86;78.17;95773.69;4932137;29;20040;-73
2023/04/03 10:44:52;;;;;;;3.08;2.97;;;;;;;10.00;76.58;95771.66;4931788;29;20115;-73
2023/04/03 10:47:29;;;;;;;2.75;2.55;;;;;;;10.01;79.93;95762.78;4935477;29;20051;-72
2023/04/03 10:50:28;;;;;;;2.85;2.72;;;;;;;10.46;74.32;95756.19;4931623;29;20043;-72
2023/04/03 10:52:54;;;;;;;2.53;2.42;;;;;;;10.44;73.74;95758.97;4930353;29;20123;-75
2023/04/03 10:55:26;;;;;;;2.30;2.20;;;;;;;11.14;72.54;95755.22;4935394;29;20063;-72
2023/04/03 10:57:56;;;;;;;2.47;2.38;;;;;;;11.61;68.83;95756.97;4934393;29;20047;-73
2023/04/03 11:00:36;;;;;;;2.30;2.20;;;;;;;11.79;69.12;95750.91;4932886;29;20027;-74
2023/04/03 11:03:25;;;;;;;2.40;2.30;;;;;;;11.82;67.56;95753.25;4932365;29;20175;-72
2023/04/03 11:05:53;;;;;;;2.25;2.15;;;;;;;11.83;66.40;95743.53;4915254;29;20028;-73
2023/04/03 11:08:40;;;;;;;2.30;2.10;;;;;;;11.87;70.35;95750.97;4934250;29;20036;-73
2023/04/03 11:11:11;;;;;;;2.55;2.30;;;;;;;12.30;68.84;95740.72;4932537;29;20071;-74
2023/04/03 11:13:50;;;;;;;2.10;2.00;;;;;;;12.01;67.10;95736.47;4934283;29;20031;-74
2023/04/03 11:16:23;;;;;;;4.30;2.70;;;;;;;11.94;67.41;95737.22;4931631;29;20449;-73
2023/04/03 11:19:18;;;;;;;2.17;2.08;;;;;;;11.20;69.09;95735.38;4932372;29;20028;-74
2023/04/03 11:22:11;;;;;;;2.95;2.67;;;;;;;11.39;69.16;95726.56;4924895;29;20043;-71
2023/04/03 11:24:41;;;;;;;2.08;1.98;;;;;;;11.28;68.40;95721.47;4934167;29;20540;-72
2023/04/03 11:27:16;;;;;;;2.47;2.30;;;;;;;10.98;69.46;95723.41;4933491;29;20040;-76
2023/04/03 11:29:45;;;;;;;2.95;2.78;;;;;;;10.61;72.21;95722.38;4931665;29;20099;-77
2023/04/03 11:32:38;;;;;;;2.90;2.70;;;;;;;10.45;73.23;95726.41;4933806;29;20058;-75
2023/04/03 11:35:07;;;;;;;3.50;3.20;;;;;;;10.50;73.14;95717.25;4932557;29;20042;-74
2023/04/03 11:37:40;;;;;;;2.60;2.50;;;;;;;10.27;73.82;95715.72;4934864;29;20469;-75
2023/04/03 11:40:09;;;;;;;2.65;2.45;;;;;;;10.66;67.50;95719.31;4917444;29;20381;-75
2023/04/03 11:42:38;;;;;;;2.40;2.30;;;;;;;10.11;69.93;95711.00;4927150;29;20031;-76
2023/04/03 11:45:23;;;;;;;3.85;3.55;;;;;;;10.29;70.21;95719.06;4917636;29;20679;-74